LRC654 MGGT-KIAD
Flight info
| Callsign | LRC654 |
|---|---|
| Flight time | N/A |
| Altitude | 33000 |
| Route | TIKIS2A TIKIS UG765 CZM UB881 CUN DCT ROTGI UM219 MYDIA M219 CIGAR M215 KNOST Q109 CAMJO Q99 SHIRY DCT TRSSK CAVLR6 |
| Aircraft | A20N/M-SDE2E3FGHIRWXY/LB1 |
Departure
| Time | N/A |
|---|---|
| Airport | La Aurora International Airport (MGGT) |
Arrival
| Time | 2026-05-05 05:28 |
|---|---|
| Airport | Washington Dulles International Airport (KIAD) |
| Time | Latitude | Longitude | Altitude | Speed | Heading |
|---|---|---|---|---|---|
| 2026-05-05 03:07 | 22.80510 | -86.44893 | 33908 ft | 463 kts | 12° |
| 2026-05-05 03:08 | 22.83666 | -86.44155 | 34232 ft | 462 kts | 12° |
| 2026-05-05 03:08 | 22.86810 | -86.43420 | 34521 ft | 462 kts | 12° |
| 2026-05-05 03:08 | 22.89912 | -86.42696 | 34791 ft | 461 kts | 12° |
| 2026-05-05 03:09 | 22.96209 | -86.41225 | 34896 ft | 461 kts | 12° |
| 2026-05-05 03:09 | 23.02502 | -86.39754 | 34900 ft | 461 kts | 12° |
| 2026-05-05 03:10 | 23.08752 | -86.38293 | 34900 ft | 461 kts | 12° |
| 2026-05-05 03:10 | 23.15044 | -86.36819 | 34900 ft | 461 kts | 12° |
| 2026-05-05 03:11 | 23.21327 | -86.35347 | 34901 ft | 461 kts | 12° |
| 2026-05-05 03:11 | 23.27607 | -86.33874 | 34900 ft | 461 kts | 12° |
| 2026-05-05 03:12 | 23.33885 | -86.32395 | 34900 ft | 461 kts | 12° |
| 2026-05-05 03:12 | 23.40132 | -86.30921 | 34900 ft | 461 kts | 12° |
| 2026-05-05 03:13 | 23.46417 | -86.29439 | 34900 ft | 461 kts | 12° |
| 2026-05-05 03:13 | 23.52704 | -86.27958 | 34900 ft | 461 kts | 12° |
| 2026-05-05 03:14 | 23.58952 | -86.26484 | 34900 ft | 461 kts | 12° |
| 2026-05-05 03:14 | 23.65229 | -86.25003 | 34900 ft | 461 kts | 12° |
| 2026-05-05 03:15 | 23.71487 | -86.23525 | 34901 ft | 461 kts | 12° |
| 2026-05-05 03:15 | 23.77765 | -86.22041 | 34900 ft | 461 kts | 12° |
| 2026-05-05 03:16 | 23.84046 | -86.20556 | 34900 ft | 461 kts | 12° |
| 2026-05-05 03:16 | 23.90342 | -86.19064 | 34899 ft | 461 kts | 12° |
| 2026-05-05 03:17 | 23.96600 | -86.17570 | 34900 ft | 461 kts | 13° |
| 2026-05-05 03:17 | 24.02740 | -86.15606 | 34900 ft | 461 kts | 20° |
| 2026-05-05 03:18 | 24.08681 | -86.12857 | 34900 ft | 461 kts | 26° |
| 2026-05-05 03:18 | 24.14288 | -86.09508 | 34900 ft | 461 kts | 30° |
| 2026-05-05 03:19 | 24.22677 | -86.04283 | 34900 ft | 461 kts | 30° |
| 2026-05-05 03:19 | 24.28233 | -86.00829 | 34900 ft | 461 kts | 30° |
| 2026-05-05 03:20 | 24.33820 | -85.97359 | 34900 ft | 461 kts | 30° |
| 2026-05-05 03:20 | 24.39404 | -85.93887 | 34900 ft | 461 kts | 30° |
| 2026-05-05 03:21 | 24.44992 | -85.90411 | 34900 ft | 461 kts | 30° |
| 2026-05-05 03:21 | 24.50563 | -85.86942 | 34900 ft | 461 kts | 30° |
| 2026-05-05 03:22 | 24.56163 | -85.83451 | 34899 ft | 461 kts | 30° |
| 2026-05-05 03:22 | 24.61710 | -85.79989 | 34900 ft | 461 kts | 30° |
| 2026-05-05 03:23 | 24.67316 | -85.76487 | 34900 ft | 461 kts | 30° |
| 2026-05-05 03:23 | 24.72892 | -85.73000 | 34900 ft | 461 kts | 30° |
| 2026-05-05 03:24 | 24.78451 | -85.69521 | 34900 ft | 461 kts | 30° |
| 2026-05-05 03:24 | 24.84051 | -85.66013 | 34900 ft | 461 kts | 30° |
| 2026-05-05 03:25 | 24.89614 | -85.62524 | 34900 ft | 461 kts | 30° |
| 2026-05-05 03:25 | 24.95194 | -85.59023 | 34900 ft | 461 kts | 30° |
| 2026-05-05 03:26 | 25.00752 | -85.55531 | 34900 ft | 461 kts | 30° |
| 2026-05-05 03:26 | 25.06323 | -85.52028 | 34900 ft | 461 kts | 30° |
| 2026-05-05 03:27 | 25.11903 | -85.48512 | 34899 ft | 461 kts | 30° |
| 2026-05-05 03:27 | 25.17501 | -85.44981 | 34900 ft | 461 kts | 30° |
| 2026-05-05 03:28 | 25.23060 | -85.41472 | 34900 ft | 461 kts | 30° |
| 2026-05-05 03:28 | 25.28700 | -85.38070 | 34899 ft | 461 kts | 25° |
| 2026-05-05 03:29 | 25.34630 | -85.35480 | 34900 ft | 461 kts | 17° |
| 2026-05-05 03:29 | 25.40868 | -85.33839 | 34900 ft | 461 kts | 9° |
| 2026-05-05 03:30 | 25.47272 | -85.33045 | 34901 ft | 460 kts | 5° |
| 2026-05-05 03:30 | 25.53631 | -85.32427 | 34900 ft | 460 kts | 5° |
| 2026-05-05 03:31 | 25.60027 | -85.31789 | 34900 ft | 460 kts | 5° |
| 2026-05-05 03:31 | 25.66390 | -85.31139 | 34900 ft | 460 kts | 5° |
| 2026-05-05 03:32 | 25.72806 | -85.30481 | 34900 ft | 460 kts | 5° |
| 2026-05-05 03:32 | 25.79181 | -85.29826 | 34900 ft | 460 kts | 5° |
| 2026-05-05 03:33 | 25.85544 | -85.29173 | 34900 ft | 460 kts | 5° |
| 2026-05-05 03:33 | 25.91956 | -85.28516 | 34900 ft | 460 kts | 5° |
| 2026-05-05 03:34 | 25.98340 | -85.27861 | 34900 ft | 460 kts | 5° |
| 2026-05-05 03:34 | 26.04709 | -85.27203 | 34900 ft | 460 kts | 5° |
| 2026-05-05 03:35 | 26.11113 | -85.26535 | 34900 ft | 460 kts | 5° |
| 2026-05-05 03:35 | 26.17479 | -85.25875 | 34901 ft | 460 kts | 5° |
| 2026-05-05 03:36 | 26.23854 | -85.25217 | 34900 ft | 460 kts | 5° |
| 2026-05-05 03:36 | 26.30259 | -85.24555 | 34900 ft | 460 kts | 5° |
| 2026-05-05 03:37 | 26.36608 | -85.23595 | 34900 ft | 461 kts | 11° |
| 2026-05-05 03:37 | 26.42844 | -85.21829 | 34900 ft | 461 kts | 18° |
| 2026-05-05 03:38 | 26.48871 | -85.19455 | 34900 ft | 461 kts | 20° |
| 2026-05-05 03:38 | 26.54904 | -85.16988 | 34899 ft | 461 kts | 20° |
| 2026-05-05 03:39 | 26.60922 | -85.14532 | 34899 ft | 461 kts | 20° |
| 2026-05-05 03:39 | 26.66953 | -85.12077 | 34899 ft | 461 kts | 20° |
| 2026-05-05 03:40 | 26.73007 | -85.09611 | 34899 ft | 461 kts | 20° |
| 2026-05-05 03:40 | 26.79036 | -85.07153 | 34899 ft | 461 kts | 20° |
| 2026-05-05 03:41 | 26.85064 | -85.04694 | 34899 ft | 461 kts | 20° |
| 2026-05-05 03:41 | 26.91077 | -85.02238 | 34899 ft | 461 kts | 20° |
| 2026-05-05 03:42 | 26.97097 | -84.99777 | 34899 ft | 461 kts | 20° |
| 2026-05-05 03:42 | 27.03146 | -84.97300 | 34899 ft | 461 kts | 20° |
| 2026-05-05 03:43 | 27.09176 | -84.94830 | 34899 ft | 461 kts | 20° |
| 2026-05-05 03:43 | 27.15216 | -84.92358 | 34899 ft | 461 kts | 20° |
| 2026-05-05 03:44 | 27.21216 | -84.89897 | 34899 ft | 461 kts | 20° |
| 2026-05-05 03:44 | 27.27264 | -84.87412 | 34899 ft | 461 kts | 20° |
| 2026-05-05 03:45 | 27.33301 | -84.84927 | 34900 ft | 461 kts | 20° |
| 2026-05-05 03:45 | 27.39294 | -84.82457 | 34899 ft | 461 kts | 20° |
| 2026-05-05 03:46 | 27.45033 | -84.79259 | 34898 ft | 461 kts | 34° |
| 2026-05-05 03:46 | 27.49772 | -84.74436 | 34899 ft | 461 kts | 51° |
| 2026-05-05 03:47 | 27.53160 | -84.68369 | 34900 ft | 459 kts | 66° |
| 2026-05-05 03:47 | 27.55664 | -84.61777 | 34900 ft | 459 kts | 68° |
| 2026-05-05 03:48 | 27.58129 | -84.55139 | 34900 ft | 459 kts | 68° |
| 2026-05-05 03:48 | 27.60607 | -84.48520 | 34899 ft | 459 kts | 68° |
| 2026-05-05 03:49 | 27.63101 | -84.41879 | 34899 ft | 459 kts | 67° |
| 2026-05-05 03:49 | 27.65579 | -84.35280 | 34900 ft | 459 kts | 67° |
| 2026-05-05 03:50 | 27.68103 | -84.28551 | 34899 ft | 459 kts | 68° |
| 2026-05-05 03:50 | 27.70587 | -84.21919 | 34899 ft | 459 kts | 68° |
| 2026-05-05 03:51 | 27.73065 | -84.15290 | 34899 ft | 459 kts | 68° |
| 2026-05-05 03:51 | 27.75536 | -84.08668 | 34900 ft | 459 kts | 68° |
| 2026-05-05 03:52 | 27.78002 | -84.02050 | 34900 ft | 459 kts | 68° |
| 2026-05-05 03:52 | 27.80480 | -83.95386 | 34900 ft | 459 kts | 68° |
| 2026-05-05 03:53 | 27.82933 | -83.88779 | 34900 ft | 459 kts | 68° |
| 2026-05-05 03:53 | 27.85398 | -83.82128 | 34900 ft | 459 kts | 68° |
| 2026-05-05 03:54 | 27.87851 | -83.75500 | 34900 ft | 459 kts | 68° |
| 2026-05-05 03:54 | 27.90322 | -83.68810 | 34900 ft | 459 kts | 68° |
| 2026-05-05 03:55 | 27.92774 | -83.62163 | 34900 ft | 459 kts | 68° |
| 2026-05-05 03:55 | 27.95214 | -83.55532 | 34900 ft | 459 kts | 68° |
| 2026-05-05 03:56 | 27.98101 | -83.49082 | 34898 ft | 460 kts | 55° |
| 2026-05-05 03:56 | 28.02433 | -83.43832 | 34900 ft | 461 kts | 38° |
| 2026-05-05 03:57 | 28.07960 | -83.40189 | 34900 ft | 461 kts | 21° |
| 2026-05-05 03:57 | 28.14156 | -83.38156 | 34902 ft | 461 kts | 13° |
| 2026-05-05 03:58 | 28.20387 | -83.36419 | 34900 ft | 461 kts | 13° |
| 2026-05-05 03:58 | 28.26621 | -83.34656 | 34900 ft | 461 kts | 14° |
| 2026-05-05 03:59 | 28.32982 | -83.32834 | 34900 ft | 461 kts | 14° |
| 2026-05-05 03:59 | 28.39200 | -83.31042 | 34900 ft | 461 kts | 14° |
| 2026-05-05 04:00 | 28.45431 | -83.29244 | 34900 ft | 461 kts | 14° |
| 2026-05-05 04:00 | 28.51621 | -83.27454 | 34900 ft | 461 kts | 14° |
| 2026-05-05 04:01 | 28.57857 | -83.25649 | 34900 ft | 461 kts | 14° |
| 2026-05-05 04:01 | 28.64057 | -83.23852 | 34900 ft | 461 kts | 14° |
| 2026-05-05 04:02 | 28.70291 | -83.22043 | 34900 ft | 461 kts | 14° |
| 2026-05-05 04:02 | 28.76488 | -83.20243 | 34900 ft | 461 kts | 14° |
| 2026-05-05 04:03 | 28.82713 | -83.18432 | 34900 ft | 461 kts | 14° |
| 2026-05-05 04:03 | 28.88928 | -83.16622 | 34899 ft | 461 kts | 14° |
| 2026-05-05 04:04 | 28.95140 | -83.14805 | 34900 ft | 461 kts | 14° |
| 2026-05-05 04:04 | 29.01374 | -83.12983 | 34900 ft | 461 kts | 14° |
| 2026-05-05 04:05 | 29.07610 | -83.11160 | 34900 ft | 461 kts | 14° |
| 2026-05-05 04:05 | 29.13889 | -83.09323 | 34900 ft | 461 kts | 14° |
| 2026-05-05 04:06 | 29.20194 | -83.07478 | 34900 ft | 461 kts | 14° |
| 2026-05-05 04:06 | 29.26434 | -83.05647 | 34900 ft | 461 kts | 14° |
| 2026-05-05 04:07 | 29.32665 | -83.03812 | 34901 ft | 461 kts | 14° |
| 2026-05-05 04:07 | 29.38882 | -83.01981 | 34900 ft | 461 kts | 14° |
| 2026-05-05 04:08 | 29.45113 | -83.00146 | 34901 ft | 461 kts | 14° |
| 2026-05-05 04:08 | 29.51378 | -82.98298 | 34901 ft | 461 kts | 14° |
| 2026-05-05 04:09 | 29.57576 | -82.96463 | 34901 ft | 461 kts | 14° |
| 2026-05-05 04:09 | 29.63802 | -82.94620 | 34901 ft | 461 kts | 14° |
| 2026-05-05 04:10 | 29.70021 | -82.92779 | 34901 ft | 461 kts | 14° |
| 2026-05-05 04:10 | 29.76252 | -82.90932 | 34901 ft | 461 kts | 14° |
| 2026-05-05 04:11 | 29.82470 | -82.89088 | 34901 ft | 461 kts | 14° |
| 2026-05-05 04:11 | 29.88701 | -82.87238 | 34901 ft | 461 kts | 14° |
| 2026-05-05 04:12 | 29.94949 | -82.85375 | 34901 ft | 461 kts | 14° |
| 2026-05-05 04:12 | 30.01166 | -82.83518 | 34901 ft | 461 kts | 14° |
| 2026-05-05 04:13 | 30.07398 | -82.81657 | 34901 ft | 461 kts | 14° |
| 2026-05-05 04:13 | 30.13703 | -82.79773 | 34901 ft | 461 kts | 14° |
| 2026-05-05 04:14 | 30.19961 | -82.77901 | 34902 ft | 461 kts | 14° |
| 2026-05-05 04:14 | 30.26177 | -82.76041 | 34903 ft | 461 kts | 14° |
| 2026-05-05 04:15 | 30.32436 | -82.74168 | 34904 ft | 461 kts | 14° |
| 2026-05-05 04:15 | 30.38641 | -82.72305 | 34903 ft | 461 kts | 14° |
| 2026-05-05 04:16 | 30.44869 | -82.70433 | 34903 ft | 461 kts | 14° |
| 2026-05-05 04:16 | 30.51095 | -82.68612 | 34903 ft | 461 kts | 12° |
| 2026-05-05 04:17 | 30.57389 | -82.67209 | 34903 ft | 461 kts | 9° |
| 2026-05-05 04:17 | 30.63740 | -82.65868 | 34903 ft | 461 kts | 9° |
| 2026-05-05 04:18 | 30.70062 | -82.64528 | 34903 ft | 461 kts | 9° |
| 2026-05-05 04:18 | 30.76387 | -82.63180 | 34902 ft | 461 kts | 9° |
| 2026-05-05 04:19 | 30.82707 | -82.61831 | 34903 ft | 461 kts | 9° |
| 2026-05-05 04:19 | 30.89031 | -82.60478 | 34903 ft | 461 kts | 9° |
| 2026-05-05 04:20 | 30.95332 | -82.59129 | 34903 ft | 461 kts | 9° |
| 2026-05-05 04:20 | 31.01649 | -82.57760 | 34903 ft | 461 kts | 11° |
| 2026-05-05 04:21 | 31.07847 | -82.55846 | 34903 ft | 461 kts | 18° |
| 2026-05-05 04:21 | 31.13902 | -82.53059 | 34903 ft | 461 kts | 25° |
| 2026-05-05 04:22 | 31.19694 | -82.49630 | 34903 ft | 461 kts | 27° |
| 2026-05-05 04:22 | 31.25399 | -82.46143 | 34903 ft | 461 kts | 27° |
| 2026-05-05 04:23 | 31.31114 | -82.42655 | 34903 ft | 461 kts | 27° |
| 2026-05-05 04:23 | 31.36820 | -82.39176 | 34903 ft | 461 kts | 27° |
| 2026-05-05 04:24 | 31.42568 | -82.35670 | 34903 ft | 461 kts | 27° |
| 2026-05-05 04:25 | 31.51200 | -82.30395 | 34904 ft | 461 kts | 27° |
| 2026-05-05 04:25 | 31.56907 | -82.26901 | 34904 ft | 461 kts | 27° |
| 2026-05-05 04:26 | 31.62612 | -82.23405 | 34904 ft | 461 kts | 27° |
| 2026-05-05 04:26 | 31.68343 | -82.19888 | 34904 ft | 461 kts | 27° |
| 2026-05-05 04:27 | 31.74048 | -82.16381 | 34904 ft | 461 kts | 27° |
| 2026-05-05 04:27 | 31.79765 | -82.12862 | 34904 ft | 461 kts | 27° |
| 2026-05-05 04:28 | 31.85496 | -82.09330 | 34904 ft | 461 kts | 27° |
| 2026-05-05 04:28 | 31.91233 | -82.05787 | 34903 ft | 461 kts | 28° |
| 2026-05-05 04:29 | 31.96943 | -82.02251 | 34903 ft | 461 kts | 27° |
| 2026-05-05 04:29 | 32.02643 | -81.98721 | 34903 ft | 461 kts | 27° |
| 2026-05-05 04:30 | 32.08361 | -81.95178 | 34903 ft | 461 kts | 27° |
| 2026-05-05 04:30 | 32.14149 | -81.91588 | 34903 ft | 461 kts | 27° |
| 2026-05-05 04:31 | 32.19936 | -81.88144 | 34903 ft | 461 kts | 26° |
| 2026-05-05 04:31 | 32.25756 | -81.84750 | 34904 ft | 461 kts | 26° |
| 2026-05-05 04:32 | 32.31573 | -81.81345 | 34904 ft | 461 kts | 26° |
| 2026-05-05 04:32 | 32.37345 | -81.77953 | 34904 ft | 461 kts | 26° |
| 2026-05-05 04:33 | 32.43127 | -81.74548 | 34904 ft | 461 kts | 26° |
| 2026-05-05 04:33 | 32.48893 | -81.71144 | 34904 ft | 461 kts | 26° |
| 2026-05-05 04:34 | 32.54660 | -81.67733 | 34904 ft | 461 kts | 26° |
| 2026-05-05 04:34 | 32.60452 | -81.64304 | 34904 ft | 461 kts | 26° |
| 2026-05-05 04:35 | 32.66208 | -81.60893 | 34904 ft | 461 kts | 26° |
| 2026-05-05 04:35 | 32.72004 | -81.57453 | 34903 ft | 461 kts | 26° |
| 2026-05-05 04:36 | 32.77782 | -81.54018 | 34903 ft | 461 kts | 26° |
| 2026-05-05 04:36 | 32.83551 | -81.50584 | 34902 ft | 461 kts | 26° |
| 2026-05-05 04:37 | 32.89335 | -81.47137 | 34902 ft | 461 kts | 26° |
| 2026-05-05 04:37 | 32.95089 | -81.43701 | 34902 ft | 461 kts | 26° |
| 2026-05-05 04:38 | 33.00852 | -81.40256 | 34902 ft | 461 kts | 26° |
| 2026-05-05 04:38 | 33.06636 | -81.36794 | 34903 ft | 461 kts | 26° |
| 2026-05-05 04:39 | 33.12389 | -81.33346 | 34903 ft | 461 kts | 27° |
| 2026-05-05 04:39 | 33.18243 | -81.29830 | 34904 ft | 461 kts | 27° |
| 2026-05-05 04:40 | 33.24029 | -81.26350 | 34904 ft | 461 kts | 27° |
| 2026-05-05 04:40 | 33.29703 | -81.22934 | 34905 ft | 461 kts | 27° |
| 2026-05-05 04:41 | 33.35471 | -81.19455 | 34905 ft | 461 kts | 27° |
| 2026-05-05 04:41 | 33.41328 | -81.15917 | 34905 ft | 461 kts | 27° |
| 2026-05-05 04:42 | 33.47144 | -81.12405 | 34905 ft | 461 kts | 27° |
| 2026-05-05 04:42 | 33.52878 | -81.08935 | 34905 ft | 461 kts | 27° |
| 2026-05-05 04:43 | 33.58623 | -81.05450 | 34905 ft | 461 kts | 27° |
| 2026-05-05 04:43 | 33.64385 | -81.01949 | 34906 ft | 461 kts | 27° |
| 2026-05-05 04:44 | 33.70188 | -80.98419 | 34906 ft | 461 kts | 27° |
| 2026-05-05 04:44 | 33.75938 | -80.94916 | 34906 ft | 461 kts | 27° |
| 2026-05-05 04:45 | 33.81685 | -80.91384 | 34906 ft | 461 kts | 28° |
| 2026-05-05 04:45 | 33.87185 | -80.87324 | 34905 ft | 461 kts | 35° |
| 2026-05-05 04:46 | 33.92346 | -80.82619 | 34906 ft | 461 kts | 38° |
| 2026-05-05 04:46 | 33.97469 | -80.77788 | 34905 ft | 461 kts | 38° |
| 2026-05-05 04:47 | 34.02536 | -80.73024 | 34904 ft | 461 kts | 38° |
| 2026-05-05 04:47 | 34.07609 | -80.68247 | 34905 ft | 461 kts | 38° |
| 2026-05-05 04:48 | 34.12693 | -80.63455 | 34904 ft | 461 kts | 38° |
| 2026-05-05 04:48 | 34.17835 | -80.58604 | 34906 ft | 461 kts | 38° |
| 2026-05-05 04:49 | 34.28213 | -80.48794 | 34907 ft | 461 kts | 38° |
| 2026-05-05 04:49 | 34.48836 | -80.29802 | 34911 ft | 461 kts | 38° |
| 2026-05-05 04:50 | 34.69499 | -80.10590 | 34910 ft | 461 kts | 38° |
| 2026-05-05 04:50 | 34.89865 | -79.91870 | 34911 ft | 461 kts | 36° |
| 2026-05-05 04:51 | 35.17441 | -79.67678 | 34922 ft | 461 kts | 36° |
| 2026-05-05 04:51 | 35.61533 | -79.29936 | 34917 ft | 461 kts | 36° |
| 2026-05-05 04:52 | 36.42324 | -78.59145 | 34964 ft | 461 kts | 36° |
| 2026-05-05 04:52 | 36.47638 | -78.54684 | 34919 ft | 460 kts | 32° |
| 2026-05-05 04:53 | 36.53126 | -78.50378 | 34910 ft | 461 kts | 32° |
| 2026-05-05 04:53 | 36.58604 | -78.46092 | 34908 ft | 461 kts | 32° |
| 2026-05-05 04:54 | 36.64053 | -78.41818 | 34908 ft | 461 kts | 32° |
| 2026-05-05 04:54 | 36.69487 | -78.37546 | 34909 ft | 461 kts | 32° |
| 2026-05-05 04:55 | 36.74936 | -78.33255 | 34909 ft | 461 kts | 32° |
| 2026-05-05 04:55 | 36.80412 | -78.28934 | 34911 ft | 461 kts | 33° |
| 2026-05-05 04:56 | 36.85874 | -78.24620 | 34910 ft | 461 kts | 32° |
| 2026-05-05 04:56 | 36.91333 | -78.20300 | 34910 ft | 461 kts | 32° |
| 2026-05-05 04:57 | 36.96634 | -78.15735 | 34909 ft | 461 kts | 38° |
| 2026-05-05 04:57 | 37.01467 | -78.10402 | 34896 ft | 461 kts | 45° |
| 2026-05-05 04:57 | 37.03717 | -78.07558 | 34653 ft | 453 kts | 46° |
| 2026-05-05 04:58 | 37.05942 | -78.04694 | 34401 ft | 451 kts | 46° |
| 2026-05-05 04:58 | 37.08121 | -78.01881 | 34153 ft | 451 kts | 46° |
| 2026-05-05 04:58 | 37.10313 | -77.99058 | 33903 ft | 451 kts | 46° |
| 2026-05-05 04:58 | 37.12522 | -77.96218 | 33644 ft | 452 kts | 46° |
| 2026-05-05 04:59 | 37.14726 | -77.93387 | 33242 ft | 453 kts | 46° |
| 2026-05-05 04:59 | 37.16852 | -77.90655 | 32691 ft | 454 kts | 46° |
| 2026-05-05 04:59 | 37.19181 | -77.87952 | 31987 ft | 455 kts | 38° |
| 2026-05-05 04:59 | 37.21830 | -77.85758 | 31241 ft | 457 kts | 28° |
| 2026-05-05 05:00 | 37.24780 | -77.84130 | 30451 ft | 459 kts | 18° |
| 2026-05-05 05:00 | 37.27942 | -77.83147 | 29637 ft | 460 kts | 8° |
| 2026-05-05 05:00 | 37.31114 | -77.82825 | 28824 ft | 461 kts | 1° |
| 2026-05-05 05:00 | 37.33292 | -77.82778 | 28251 ft | 462 kts | 360° |
| 2026-05-05 05:01 | 37.37560 | -77.82762 | 27092 ft | 465 kts | 359° |
| 2026-05-05 05:01 | 37.40841 | -77.82752 | 26328 ft | 463 kts | 359° |
| 2026-05-05 05:01 | 37.44046 | -77.82728 | 25769 ft | 458 kts | 360° |
| 2026-05-05 05:01 | 37.47245 | -77.82693 | 25194 ft | 453 kts | 360° |
| 2026-05-05 05:02 | 37.50405 | -77.82652 | 24614 ft | 448 kts | 360° |
| 2026-05-05 05:02 | 37.53505 | -77.82608 | 24032 ft | 444 kts | 360° |
| 2026-05-05 05:02 | 37.56616 | -77.82564 | 23447 ft | 440 kts | 360° |
| 2026-05-05 05:02 | 37.59644 | -77.82522 | 22873 ft | 436 kts | 360° |
| 2026-05-05 05:03 | 37.62719 | -77.82412 | 22280 ft | 433 kts | 4° |
| 2026-05-05 05:03 | 37.65676 | -77.81823 | 21700 ft | 430 kts | 13° |
| 2026-05-05 05:03 | 37.68568 | -77.80682 | 21037 ft | 429 kts | 21° |
| 2026-05-05 05:03 | 37.71309 | -77.79216 | 20390 ft | 427 kts | 24° |
| 2026-05-05 05:04 | 37.74025 | -77.77682 | 19738 ft | 425 kts | 24° |
| 2026-05-05 05:04 | 37.76722 | -77.76150 | 19086 ft | 423 kts | 24° |
| 2026-05-05 05:04 | 37.79402 | -77.74641 | 18434 ft | 419 kts | 24° |
| 2026-05-05 05:04 | 37.82087 | -77.73141 | 17779 ft | 417 kts | 23° |
| 2026-05-05 05:05 | 37.84729 | -77.71671 | 17129 ft | 412 kts | 23° |
| 2026-05-05 05:05 | 37.87353 | -77.70211 | 16481 ft | 409 kts | 23° |
| 2026-05-05 05:05 | 37.89977 | -77.68748 | 15873 ft | 405 kts | 23° |
| 2026-05-05 05:05 | 37.92542 | -77.67315 | 15305 ft | 401 kts | 23° |
| 2026-05-05 05:06 | 37.95076 | -77.65898 | 14738 ft | 396 kts | 23° |
| 2026-05-05 05:06 | 37.97603 | -77.64486 | 14171 ft | 390 kts | 23° |
| 2026-05-05 05:06 | 38.00116 | -77.63080 | 13602 ft | 386 kts | 23° |
| 2026-05-05 05:06 | 38.02548 | -77.61718 | 13136 ft | 375 kts | 23° |
| 2026-05-05 05:07 | 38.04894 | -77.60403 | 12976 ft | 357 kts | 24° |
| 2026-05-05 05:07 | 38.07095 | -77.59064 | 12728 ft | 344 kts | 26° |
| 2026-05-05 05:07 | 38.09209 | -77.57725 | 12335 ft | 338 kts | 26° |
| 2026-05-05 05:07 | 38.11323 | -77.56374 | 11949 ft | 332 kts | 26° |
| 2026-05-05 05:08 | 38.13390 | -77.55054 | 11558 ft | 325 kts | 26° |
| 2026-05-05 05:08 | 38.15424 | -77.53758 | 11193 ft | 319 kts | 26° |
| 2026-05-05 05:08 | 38.17381 | -77.52505 | 10892 ft | 313 kts | 25° |
| 2026-05-05 05:08 | 38.19326 | -77.51264 | 10582 ft | 307 kts | 26° |
| 2026-05-05 05:09 | 38.21217 | -77.50067 | 10310 ft | 301 kts | 26° |
| 2026-05-05 05:09 | 38.23093 | -77.48901 | 10071 ft | 294 kts | 23° |
| 2026-05-05 05:09 | 38.25007 | -77.47958 | 9933 ft | 294 kts | 18° |
| 2026-05-05 05:09 | 38.27028 | -77.47195 | 9951 ft | 299 kts | 15° |
| 2026-05-05 05:10 | 38.29026 | -77.46491 | 9954 ft | 300 kts | 15° |
| 2026-05-05 05:10 | 38.31068 | -77.45779 | 9948 ft | 299 kts | 14° |
| 2026-05-05 05:10 | 38.33028 | -77.45099 | 9928 ft | 297 kts | 14° |
| 2026-05-05 05:10 | 38.35029 | -77.44398 | 9689 ft | 299 kts | 14° |
| 2026-05-05 05:11 | 38.37046 | -77.43695 | 9289 ft | 295 kts | 14° |
| 2026-05-05 05:11 | 38.39020 | -77.42999 | 8922 ft | 292 kts | 15° |
| 2026-05-05 05:11 | 38.40982 | -77.42303 | 8565 ft | 290 kts | 15° |
| 2026-05-05 05:11 | 38.42937 | -77.41614 | 8211 ft | 285 kts | 14° |
| 2026-05-05 05:12 | 38.44831 | -77.40944 | 7875 ft | 282 kts | 15° |
| 2026-05-05 05:12 | 38.46713 | -77.40276 | 7538 ft | 279 kts | 14° |
| 2026-05-05 05:12 | 38.48591 | -77.39610 | 7202 ft | 278 kts | 15° |
| 2026-05-05 05:12 | 38.50441 | -77.38959 | 6912 ft | 278 kts | 14° |
| 2026-05-05 05:13 | 38.52365 | -77.38338 | 6921 ft | 286 kts | 13° |
| 2026-05-05 05:13 | 38.54310 | -77.37729 | 6787 ft | 286 kts | 13° |
| 2026-05-05 05:13 | 38.56263 | -77.37115 | 6412 ft | 286 kts | 13° |
| 2026-05-05 05:13 | 38.58179 | -77.36568 | 6056 ft | 282 kts | 8° |
| 2026-05-05 05:14 | 38.60139 | -77.36293 | 5885 ft | 280 kts | 2° |
| 2026-05-05 05:14 | 38.62120 | -77.36199 | 5907 ft | 283 kts | 0° |
| 2026-05-05 05:14 | 38.64090 | -77.36139 | 5924 ft | 283 kts | 0° |
| 2026-05-05 05:14 | 38.66063 | -77.36076 | 5928 ft | 282 kts | 0° |
| 2026-05-05 05:15 | 38.68053 | -77.36011 | 5685 ft | 282 kts | 0° |
| 2026-05-05 05:15 | 38.69991 | -77.35942 | 5318 ft | 280 kts | 0° |
| 2026-05-05 05:15 | 38.71932 | -77.35870 | 4967 ft | 276 kts | 0° |
| 2026-05-05 05:15 | 38.73862 | -77.35804 | 4626 ft | 273 kts | 0° |
| 2026-05-05 05:16 | 38.75762 | -77.35732 | 4291 ft | 270 kts | 0° |
| 2026-05-05 05:16 | 38.77622 | -77.35664 | 4025 ft | 271 kts | 360° |
| 2026-05-05 05:16 | 38.79546 | -77.35597 | 3978 ft | 275 kts | 0° |
| 2026-05-05 05:16 | 38.81453 | -77.35532 | 3973 ft | 271 kts | 0° |
| 2026-05-05 05:17 | 38.83285 | -77.35466 | 3967 ft | 254 kts | 0° |
| 2026-05-05 05:17 | 38.85005 | -77.35403 | 3963 ft | 236 kts | 0° |
| 2026-05-05 05:17 | 38.86608 | -77.35339 | 3963 ft | 226 kts | 360° |
| 2026-05-05 05:17 | 38.88195 | -77.35281 | 3971 ft | 226 kts | 360° |
| 2026-05-05 05:18 | 38.89785 | -77.35228 | 3972 ft | 226 kts | 360° |
| 2026-05-05 05:18 | 38.91365 | -77.35175 | 3973 ft | 227 kts | 0° |
| 2026-05-05 05:18 | 38.92942 | -77.35120 | 3976 ft | 226 kts | 0° |
| 2026-05-05 05:18 | 38.94534 | -77.35062 | 3974 ft | 226 kts | 0° |
| 2026-05-05 05:19 | 38.96127 | -77.35004 | 3973 ft | 226 kts | 0° |
| 2026-05-05 05:19 | 38.97710 | -77.34945 | 3974 ft | 227 kts | 1° |
| 2026-05-05 05:19 | 38.99298 | -77.34881 | 3974 ft | 226 kts | 0° |
| 2026-05-05 05:19 | 39.00902 | -77.34822 | 3969 ft | 225 kts | 0° |
| 2026-05-05 05:20 | 39.02464 | -77.34766 | 3760 ft | 222 kts | 0° |
| 2026-05-05 05:20 | 39.04002 | -77.34711 | 3430 ft | 223 kts | 0° |
| 2026-05-05 05:20 | 39.05567 | -77.34658 | 3125 ft | 223 kts | 0° |
| 2026-05-05 05:20 | 39.07132 | -77.34606 | 2986 ft | 221 kts | 0° |
| 2026-05-05 05:21 | 39.08664 | -77.34553 | 2979 ft | 219 kts | 0° |
| 2026-05-05 05:21 | 39.10157 | -77.34498 | 2963 ft | 206 kts | 360° |
| 2026-05-05 05:21 | 39.11617 | -77.34489 | 2991 ft | 201 kts | 351° |
| 2026-05-05 05:21 | 39.12806 | -77.35171 | 3007 ft | 178 kts | 311° |
| 2026-05-05 05:22 | 39.13286 | -77.36488 | 2955 ft | 152 kts | 272° |
| 2026-05-05 05:22 | 39.13265 | -77.37804 | 2963 ft | 145 kts | 261° |
| 2026-05-05 05:22 | 39.13155 | -77.39100 | 2970 ft | 145 kts | 260° |
| 2026-05-05 05:22 | 39.13022 | -77.40372 | 2978 ft | 144 kts | 254° |
| 2026-05-05 05:23 | 39.12594 | -77.41535 | 2979 ft | 142 kts | 234° |
| 2026-05-05 05:23 | 39.12003 | -77.42548 | 2980 ft | 142 kts | 226° |
| 2026-05-05 05:23 | 39.11147 | -77.43160 | 2979 ft | 141 kts | 194° |
| 2026-05-05 05:23 | 39.10169 | -77.43338 | 2983 ft | 142 kts | 185° |
| 2026-05-05 05:24 | 39.09161 | -77.43395 | 2892 ft | 143 kts | 183° |
| 2026-05-05 05:24 | 39.08173 | -77.43416 | 2705 ft | 141 kts | 182° |
| 2026-05-05 05:24 | 39.07184 | -77.43431 | 2523 ft | 141 kts | 182° |
| 2026-05-05 05:24 | 39.06197 | -77.43445 | 2340 ft | 141 kts | 183° |
| 2026-05-05 05:25 | 39.05218 | -77.43462 | 2155 ft | 140 kts | 182° |
| 2026-05-05 05:25 | 39.04250 | -77.43478 | 1974 ft | 140 kts | 181° |
| 2026-05-05 05:25 | 39.03271 | -77.43489 | 1791 ft | 140 kts | 182° |
| 2026-05-05 05:25 | 39.02304 | -77.43501 | 1639 ft | 137 kts | 182° |
| 2026-05-05 05:26 | 39.01377 | -77.43510 | 1435 ft | 127 kts | 182° |
| 2026-05-05 05:26 | 39.00485 | -77.43522 | 1265 ft | 126 kts | 182° |
| 2026-05-05 05:26 | 38.99616 | -77.43533 | 1103 ft | 125 kts | 182° |
| 2026-05-05 05:26 | 38.98740 | -77.43547 | 947 ft | 125 kts | 182° |
| 2026-05-05 05:27 | 38.97865 | -77.43557 | 775 ft | 125 kts | 182° |
| 2026-05-05 05:27 | 38.96995 | -77.43570 | 628 ft | 124 kts | 182° |
| 2026-05-05 05:27 | 38.95261 | -77.43600 | 329 ft | 121 kts | 182° |
| 2026-05-05 05:28 | 38.94525 | -77.43614 | 319 ft | 81 kts | 181° |
| 2026-05-05 05:28 | 38.94106 | -77.43625 | 319 ft | 43 kts | 188° |
| 2026-05-05 05:28 | 38.93893 | -77.43720 | 319 ft | 29 kts | 210° |